createdAt,value
2018-11-23T00:00:31.129Z,3.01
2018-11-23T00:03:00.688Z,2.75
2018-11-23T00:05:29.602Z,3.12
2018-11-23T00:07:59.209Z,2.78
2018-11-23T00:10:29.467Z,2.68
2018-11-23T00:12:58.427Z,2.66
2018-11-23T00:15:27.380Z,3.04
2018-11-23T00:17:56.354Z,2.83
2018-11-23T00:20:26.663Z,2.75
2018-11-23T00:22:55.547Z,2.68
2018-11-23T00:25:25.324Z,2.65
2018-11-23T00:27:54.801Z,2.63
2018-11-23T00:30:24.882Z,2.68
2018-11-23T00:32:54.156Z,2.65
2018-11-23T00:35:24.305Z,2.54
2018-11-23T00:37:53.806Z,2.56
2018-11-23T00:40:26.798Z,2.54
2018-11-23T00:42:56.071Z,2.55
2018-11-23T00:45:25.040Z,2.51
2018-11-23T00:47:54.797Z,2.54
2018-11-23T00:50:24.506Z,2.48
2018-11-23T00:52:54.296Z,2.48
2018-11-23T00:55:24.021Z,2.44
2018-11-23T00:57:52.953Z,2.47
2018-11-23T01:00:29.410Z,2.35
2018-11-23T01:02:58.987Z,2.37
2018-11-23T01:05:27.892Z,2.29
2018-11-23T01:07:56.800Z,2.28
2018-11-23T01:10:26.906Z,2.19
2018-11-23T01:12:56.739Z,2.21
2018-11-23T01:15:25.645Z,2.21
2018-11-23T01:17:54.555Z,2.22
2018-11-23T01:20:24.699Z,2.28
2018-11-23T01:22:54.321Z,2.25
2018-11-23T01:25:24.234Z,2.26
2018-11-23T01:27:53.854Z,2.27
2018-11-23T01:30:32.681Z,2.23
2018-11-23T01:33:01.654Z,2.15
2018-11-23T01:35:30.510Z,2.15
2018-11-23T01:37:59.450Z,2.17
2018-11-23T01:40:29.769Z,2.17
2018-11-23T01:42:59.030Z,2.12
2018-11-23T01:45:27.949Z,2.21
2018-11-23T01:47:56.851Z,2.18
2018-11-23T01:50:27.121Z,2.19
2018-11-23T01:52:56.200Z,2.53
2018-11-23T01:55:25.891Z,2.39
2018-11-23T01:57:54.839Z,2.35
2018-11-23T02:00:24.887Z,2.27
2018-11-23T02:02:54.587Z,2.19
2018-11-23T02:05:23.547Z,2.19
2018-11-23T02:07:52.469Z,2.20
2018-11-23T02:10:21.438Z,2.17
2018-11-23T02:12:50.354Z,2.14
2018-11-23T02:15:20.589Z,2.13
2018-11-23T02:17:50.092Z,2.14
2018-11-23T02:20:19.803Z,2.05
2018-11-23T02:22:48.732Z,2.04
2018-11-23T02:25:17.613Z,2.04
2018-11-23T02:27:46.562Z,2.00
2018-11-23T02:30:25.492Z,1.97
2018-11-23T02:32:54.715Z,2.01
2018-11-23T02:35:23.645Z,2.01
2018-11-23T02:37:52.538Z,1.96
2018-11-23T02:40:21.865Z,1.94
2018-11-23T02:42:50.799Z,1.89
2018-11-23T02:45:21.096Z,1.93
2018-11-23T02:47:50.299Z,1.85
2018-11-23T02:50:19.314Z,1.81
2018-11-23T02:52:48.605Z,2.16
2018-11-23T02:55:18.423Z,2.33
2018-11-23T02:57:47.349Z,1.98
2018-11-23T03:00:18.270Z,1.92
2018-11-23T03:02:47.323Z,1.94
2018-11-23T03:05:17.636Z,1.94
2018-11-23T03:07:46.564Z,1.88
2018-11-23T03:10:16.218Z,1.84
2018-11-23T03:12:45.987Z,2.18
2018-11-23T03:15:16.623Z,1.98
2018-11-23T03:17:46.191Z,2.32
2018-11-23T03:20:16.427Z,1.97
2018-11-23T03:22:45.349Z,1.87
2018-11-23T03:25:14.727Z,2.24
2018-11-23T03:27:43.657Z,1.93
2018-11-23T03:30:20.404Z,1.88
2018-11-23T03:32:50.177Z,1.84
2018-11-23T03:35:19.710Z,2.20
2018-11-23T03:37:48.639Z,1.91
2018-11-23T03:40:17.514Z,2.27
2018-11-23T03:42:46.487Z,1.89
2018-11-23T03:45:15.867Z,1.82
2018-11-23T03:47:45.093Z,1.77
2018-11-23T03:50:14.865Z,1.79
2018-11-23T03:52:44.186Z,1.81
2018-11-23T03:55:13.150Z,1.75
2018-11-23T03:57:42.061Z,1.73
2018-11-23T04:00:19.460Z,1.73
2018-11-23T04:02:48.790Z,1.60
2018-11-23T04:05:18.063Z,1.60
2018-11-23T04:07:47.347Z,1.58
2018-11-23T04:10:16.916Z,1.57
2018-11-23T04:12:46.153Z,1.60
2018-11-23T04:15:15.499Z,1.63
2018-11-23T04:17:44.439Z,1.71
2018-11-23T04:20:14.588Z,1.67
2018-11-23T04:22:43.776Z,1.61
2018-11-23T04:25:13.323Z,2.05
2018-11-23T04:27:42.695Z,1.89
2018-11-23T04:30:13.738Z,1.90
2018-11-23T04:32:42.926Z,2.32
2018-11-23T04:35:13.359Z,2.49
2018-11-23T04:37:42.942Z,2.22
2018-11-23T04:40:12.680Z,2.20
2018-11-23T04:42:41.846Z,2.22
2018-11-23T04:45:11.287Z,2.23
2018-11-23T04:47:40.304Z,2.30
2018-11-23T04:50:10.999Z,2.22
2018-11-23T04:52:39.921Z,2.27
2018-11-23T04:55:09.482Z,2.31
2018-11-23T04:57:38.419Z,2.33
2018-11-23T05:00:09.559Z,2.26
2018-11-23T05:02:38.469Z,2.26
2018-11-23T05:05:08.774Z,2.26
2018-11-23T05:07:37.752Z,2.28
2018-11-23T05:10:08.766Z,2.26
2018-11-23T05:12:37.760Z,2.26
2018-11-23T05:15:07.439Z,2.28
2018-11-23T05:17:36.521Z,2.25
2018-11-23T05:20:06.170Z,2.21
2018-11-23T05:22:35.253Z,2.14
2018-11-23T05:25:04.225Z,2.13
2018-11-23T05:27:33.137Z,2.07
2018-11-23T05:30:02.191Z,2.05
2018-11-23T05:32:31.096Z,2.08
2018-11-23T05:35:00.030Z,2.05
2018-11-23T05:37:28.933Z,2.05
2018-11-23T05:39:57.852Z,2.01
2018-11-23T05:42:26.818Z,1.96
2018-11-23T05:44:55.822Z,1.88
2018-11-23T05:47:24.740Z,1.90
2018-11-23T05:49:53.664Z,1.96
2018-11-23T05:52:22.639Z,2.06
2018-11-23T05:54:51.587Z,2.05
2018-11-23T05:57:20.511Z,2.12
2018-11-23T05:59:49.447Z,2.12
2018-11-23T06:02:18.389Z,2.06
2018-11-23T06:04:47.327Z,2.10
2018-11-23T06:07:16.225Z,2.46
2018-11-23T06:09:45.170Z,2.22
2018-11-23T06:12:14.118Z,2.20
2018-11-23T06:14:43.045Z,2.60
2018-11-23T06:17:11.986Z,2.44
2018-11-23T06:19:40.866Z,2.49
2018-11-23T06:22:09.799Z,2.35
2018-11-23T06:24:38.776Z,2.38
2018-11-23T06:27:07.699Z,2.32
2018-11-23T06:29:36.650Z,2.37
2018-11-23T06:32:43.371Z,2.43
2018-11-23T06:35:12.275Z,2.51
2018-11-23T06:37:41.179Z,2.47
2018-11-23T06:40:10.735Z,2.55
2018-11-23T06:42:42.301Z,2.62
2018-11-23T06:45:09.374Z,2.65
2018-11-23T06:47:38.332Z,2.70
2018-11-23T06:50:13.968Z,2.76
2018-11-23T06:52:42.940Z,2.75
2018-11-23T06:55:12.483Z,2.80
2018-11-23T06:57:41.743Z,2.83
2018-11-23T07:00:14.977Z,3.20
2018-11-23T07:02:44.783Z,3.39
2018-11-23T07:05:14.099Z,3.03
2018-11-23T07:07:43.035Z,2.92
2018-11-23T07:10:12.046Z,2.88
2018-11-23T07:12:40.979Z,2.86
2018-11-23T07:15:11.519Z,2.81
2018-11-23T07:17:41.141Z,3.23
2018-11-23T07:20:12.204Z,3.12
2018-11-23T07:22:41.529Z,3.05
2018-11-23T07:25:11.975Z,3.10
2018-11-23T07:27:41.354Z,3.14
2018-11-23T07:30:18.771Z,3.21
2018-11-23T07:32:47.690Z,3.28
2018-11-23T07:35:16.861Z,3.41
2018-11-23T07:37:45.765Z,3.42
2018-11-23T07:40:52.110Z,3.48
2018-11-23T07:43:21.117Z,3.50
2018-11-23T07:45:50.155Z,3.58
2018-11-23T07:48:19.055Z,3.96
2018-11-23T07:50:47.976Z,4.18
2018-11-23T07:53:16.874Z,4.01
2018-11-23T07:55:45.826Z,4.01
2018-11-23T07:58:14.724Z,3.93
2018-11-23T08:00:43.727Z,3.70
2018-11-23T08:03:12.616Z,3.89
2018-11-23T08:05:41.607Z,4.05
2018-11-23T08:08:10.584Z,4.30
2018-11-23T08:10:38.693Z,4.57
2018-11-23T08:13:07.845Z,4.55
2018-11-23T08:15:36.731Z,4.48
2018-11-23T08:18:05.717Z,4.42
2018-11-23T08:20:34.671Z,4.38
2018-11-23T08:23:03.662Z,4.44
2018-11-23T08:25:32.664Z,4.41
2018-11-23T08:28:01.592Z,4.47
2018-11-23T08:30:30.843Z,4.45
2018-11-23T08:33:00.037Z,4.33
2018-11-23T08:35:28.963Z,4.53
2018-11-23T08:37:57.888Z,4.57
2018-11-23T08:40:27.546Z,4.54
2018-11-23T08:42:57.090Z,4.63
2018-11-23T08:45:26.969Z,4.71
2018-11-23T08:47:55.968Z,4.89
2018-11-23T08:50:31.292Z,5.39
2018-11-23T08:53:00.261Z,5.74
2018-11-23T08:55:29.239Z,6.28
2018-11-23T08:57:58.156Z,6.33
2018-11-23T09:00:28.222Z,6.45
2018-11-23T09:02:59.027Z,6.40
2018-11-23T09:05:27.894Z,6.30
2018-11-23T09:07:57.300Z,6.06
2018-11-23T09:10:30.555Z,5.46
2018-11-23T09:13:01.281Z,5.37
2018-11-23T09:15:30.308Z,5.31
2018-11-23T09:17:59.287Z,5.16
2018-11-23T09:20:28.169Z,4.92
2018-11-23T09:22:57.093Z,5.01
2018-11-23T09:25:25.991Z,5.00
2018-11-23T09:27:54.904Z,5.01
2018-11-23T09:30:25.212Z,5.03
2018-11-23T09:32:54.710Z,4.94
2018-11-23T09:35:23.741Z,4.95
2018-11-23T09:37:52.896Z,4.88
2018-11-23T09:40:23.149Z,5.23
2018-11-23T09:42:52.308Z,5.04
2018-11-23T09:45:22.633Z,5.03
2018-11-23T09:47:52.876Z,5.12
2018-11-23T09:50:23.136Z,5.08
2018-11-23T09:52:53.245Z,5.14
2018-11-23T09:55:22.740Z,5.18
2018-11-23T09:57:51.763Z,5.34
2018-11-23T10:00:27.885Z,5.53
2018-11-23T10:02:57.565Z,6.27
2018-11-23T10:05:27.318Z,8.19
2018-11-23T10:07:57.860Z,8.97
2018-11-23T10:10:27.317Z,8.62
2018-11-23T10:12:56.254Z,9.20
2018-11-23T10:15:26.259Z,10.29
2018-11-23T10:17:55.404Z,11.73
2018-11-23T10:20:28.613Z,11.76
2018-11-23T10:22:57.764Z,10.69
2018-11-23T10:25:31.242Z,9.76
2018-11-23T10:28:00.233Z,9.32
2018-11-23T10:30:33.197Z,8.95
2018-11-23T10:33:03.437Z,8.80
2018-11-23T10:35:32.442Z,8.75
2018-11-23T10:38:02.683Z,8.67
2018-11-23T10:40:33.181Z,9.00
2018-11-23T10:43:02.104Z,8.44
2018-11-23T10:45:32.253Z,8.30
2018-11-23T10:48:02.218Z,8.45
2018-11-23T10:50:35.868Z,8.65
2018-11-23T10:53:05.233Z,8.87
2018-11-23T10:55:35.201Z,9.44
2018-11-23T10:58:04.152Z,9.74
2018-11-23T11:00:50.944Z,10.23
2018-11-23T11:03:39.141Z,12.55
2018-11-23T11:06:30.583Z,13.75
2018-11-23T11:08:59.440Z,14.17
2018-11-23T11:11:28.351Z,14.27
2018-11-23T11:13:58.019Z,13.58
2018-11-23T11:16:27.252Z,13.68
2018-11-23T11:18:55.868Z,13.98
2018-11-23T11:21:24.814Z,14.69
2018-11-23T11:23:53.732Z,15.78
2018-11-23T11:26:22.773Z,14.71
2018-11-23T11:28:51.694Z,13.97
2018-11-23T11:31:20.664Z,13.12
2018-11-23T11:33:50.988Z,12.30
2018-11-23T11:36:20.811Z,12.08
2018-11-23T11:38:49.671Z,11.70
2018-11-23T11:41:18.588Z,11.69
2018-11-23T11:43:47.552Z,11.49
2018-11-23T11:46:16.486Z,11.42
2018-11-23T11:48:45.385Z,11.35
2018-11-23T11:51:14.779Z,10.85
2018-11-23T11:53:43.198Z,10.86
2018-11-23T11:56:12.142Z,10.84
2018-11-23T11:58:41.026Z,10.60
2018-11-23T12:01:10.022Z,10.47
2018-11-23T12:03:39.023Z,10.28
2018-11-23T12:06:08.042Z,10.02
2018-11-23T12:08:36.966Z,10.02
2018-11-23T12:11:06.559Z,10.10
2018-11-23T12:13:35.449Z,10.22
2018-11-23T12:16:04.449Z,10.24
2018-11-23T12:18:33.384Z,10.36
2018-11-23T12:21:02.303Z,10.32
2018-11-23T12:23:31.225Z,10.34
2018-11-23T12:26:00.117Z,10.35
2018-11-23T12:28:29.060Z,10.38
2018-11-23T12:30:57.959Z,10.38
2018-11-23T12:33:26.872Z,10.38
2018-11-23T12:35:55.855Z,10.42
2018-11-23T12:38:24.818Z,10.25
2018-11-23T12:40:53.749Z,10.09
2018-11-23T12:43:22.733Z,9.90
2018-11-23T12:45:51.578Z,9.86
2018-11-23T12:48:21.119Z,9.86
2018-11-23T12:50:51.494Z,9.90
2018-11-23T12:53:20.402Z,9.89
2018-11-23T12:55:49.361Z,9.93
2018-11-23T12:58:18.290Z,9.96
2018-11-23T13:00:47.275Z,9.94
2018-11-23T13:03:16.268Z,9.92
2018-11-23T13:05:45.155Z,9.90
2018-11-23T13:08:14.097Z,9.87
2018-11-23T13:10:43.133Z,10.12
2018-11-23T13:13:11.997Z,10.05
2018-11-23T13:15:40.946Z,10.03
2018-11-23T13:18:10.144Z,9.96
2018-11-23T13:20:39.006Z,9.89
2018-11-23T13:23:08.095Z,9.86
2018-11-23T13:25:37.014Z,9.83
2018-11-23T13:28:06.349Z,10.11
2018-11-23T13:30:36.298Z,9.91
2018-11-23T13:33:05.269Z,9.83
2018-11-23T13:35:34.215Z,9.87
2018-11-23T13:38:03.110Z,9.86
2018-11-23T13:40:31.998Z,9.83
2018-11-23T13:43:01.470Z,9.68
2018-11-23T13:45:31.914Z,9.55
2018-11-23T13:48:00.847Z,9.40
2018-11-23T13:50:29.866Z,9.52
2018-11-23T13:53:00.321Z,9.30
2018-11-23T13:55:29.223Z,9.21
2018-11-23T13:57:58.137Z,9.17
2018-11-23T14:00:28.469Z,9.10
2018-11-23T14:02:57.390Z,9.15
2018-11-23T14:05:27.837Z,9.07
2018-11-23T14:07:58.373Z,8.94
2018-11-23T14:10:28.119Z,9.03
2018-11-23T14:12:57.029Z,9.09
2018-11-23T14:15:27.273Z,9.18
2018-11-23T14:17:57.591Z,9.17
2018-11-23T14:20:27.205Z,9.16
2018-11-23T14:22:56.123Z,9.14
2018-11-23T14:25:26.454Z,9.09
2018-11-23T14:27:55.854Z,8.99
2018-11-23T14:30:29.175Z,9.28
2018-11-23T14:32:58.387Z,9.14
2018-11-23T14:35:28.742Z,9.11
2018-11-23T14:37:58.573Z,9.17
2018-11-23T14:40:27.490Z,9.20
2018-11-23T14:42:56.866Z,9.19
2018-11-23T14:45:35.851Z,9.50
2018-11-23T14:48:08.793Z,9.23
2018-11-23T14:50:51.159Z,9.20
2018-11-23T14:53:20.081Z,9.12
2018-11-23T14:55:49.031Z,9.41
2018-11-23T14:58:18.037Z,9.20
2018-11-23T15:00:47.094Z,9.14
2018-11-23T15:03:16.113Z,9.05
2018-11-23T15:05:45.133Z,9.05
2018-11-23T15:08:14.106Z,8.99
2018-11-23T15:10:43.066Z,9.21
2018-11-23T15:13:11.974Z,9.00
2018-11-23T15:15:41.748Z,8.94
2018-11-23T15:18:11.094Z,8.88
2018-11-23T15:20:44.572Z,8.83
2018-11-23T15:23:14.838Z,8.68
2018-11-23T15:25:43.718Z,8.51
2018-11-23T15:28:13.226Z,8.35
2018-11-23T15:30:42.977Z,8.23
2018-11-23T15:33:13.405Z,8.43
2018-11-23T15:35:43.063Z,8.13
2018-11-23T15:38:14.121Z,8.01
2018-11-23T15:40:43.161Z,7.92
2018-11-23T15:43:13.238Z,7.86
2018-11-23T15:45:46.936Z,7.79
2018-11-23T15:48:17.239Z,7.74
2018-11-23T15:50:46.291Z,7.67
2018-11-23T15:53:16.252Z,7.58
2018-11-23T15:55:45.202Z,7.43
2018-11-23T15:58:17.450Z,7.40
2018-11-23T16:00:48.854Z,7.43
2018-11-23T16:03:24.295Z,7.35
2018-11-23T16:05:50.531Z,7.24
2018-11-23T16:08:20.355Z,7.20
2018-11-23T16:10:49.460Z,7.41
2018-11-23T16:13:18.443Z,7.17
2018-11-23T16:15:47.358Z,7.15
2018-11-23T16:18:16.275Z,7.06
2018-11-23T16:20:46.182Z,7.04
2018-11-23T16:23:16.528Z,7.00
2018-11-23T16:25:46.121Z,6.97
2018-11-23T16:28:15.081Z,6.95
2018-11-23T16:30:45.554Z,6.87
2018-11-23T16:33:16.189Z,6.81
2018-11-23T16:35:45.141Z,6.84
2018-11-23T16:38:15.740Z,6.81
2018-11-23T16:40:46.565Z,6.80
2018-11-23T16:43:15.862Z,6.77
2018-11-23T16:45:45.325Z,6.82
2018-11-23T16:48:14.983Z,6.79
2018-11-23T16:50:44.472Z,6.75
2018-11-23T16:53:13.363Z,6.80
2018-11-23T16:55:42.292Z,6.81
2018-11-23T16:58:12.384Z,6.82
2018-11-23T17:00:42.568Z,6.80
2018-11-23T17:03:13.308Z,6.81
2018-11-23T17:05:43.883Z,6.83
2018-11-23T17:08:12.809Z,6.88
2018-11-23T17:10:41.759Z,6.88
2018-11-23T17:13:10.733Z,6.88
2018-11-23T17:15:52.651Z,6.89
2018-11-23T17:18:25.515Z,7.30
2018-11-23T17:20:59.266Z,7.45
2018-11-23T17:23:29.784Z,7.11
2018-11-23T17:26:01.613Z,7.10
2018-11-23T17:28:36.114Z,7.02
2018-11-23T17:31:10.038Z,7.33
2018-11-23T17:33:42.526Z,7.09
2018-11-23T17:36:13.142Z,6.87
2018-11-23T17:38:47.667Z,6.90
2018-11-23T17:41:16.687Z,6.90
2018-11-23T17:43:49.297Z,6.86
2018-11-23T17:46:19.660Z,7.12
2018-11-23T17:48:51.227Z,6.90
2018-11-23T17:51:21.252Z,6.82
2018-11-23T17:53:52.096Z,6.75
2018-11-23T17:56:26.924Z,6.75
2018-11-23T17:58:59.578Z,6.70
2018-11-23T18:01:29.965Z,6.61
2018-11-23T18:04:00.340Z,6.57
2018-11-23T18:06:35.992Z,6.50
2018-11-23T18:09:09.576Z,6.38
2018-11-23T18:11:40.344Z,6.34
2018-11-23T18:14:11.908Z,6.27
2018-11-23T18:16:44.295Z,6.25
2018-11-23T18:19:16.741Z,6.19
2018-11-23T18:21:51.815Z,6.47
2018-11-23T18:24:21.822Z,6.31
2018-11-23T18:26:53.888Z,6.23
2018-11-23T18:29:26.926Z,6.17
2018-11-23T18:31:58.988Z,6.41
2018-11-23T18:34:28.927Z,6.16
2018-11-23T18:36:59.140Z,6.43
2018-11-23T18:39:28.809Z,6.19
2018-11-23T18:42:00.613Z,6.11
2018-11-23T18:44:33.627Z,5.96
2018-11-23T18:47:03.769Z,5.95
2018-11-23T18:49:36.395Z,5.87
2018-11-23T18:52:06.569Z,5.78
2018-11-23T18:54:38.589Z,5.75
2018-11-23T18:57:06.759Z,5.79
2018-11-23T18:59:36.514Z,5.74
2018-11-23T19:02:11.366Z,5.75
2018-11-23T19:04:41.729Z,5.75
2018-11-23T19:07:13.667Z,5.69
2018-11-23T19:09:46.769Z,5.68
2018-11-23T19:12:16.481Z,5.64
2018-11-23T19:14:48.721Z,5.56
2018-11-23T19:17:18.770Z,5.58
2018-11-23T19:19:51.583Z,5.54
2018-11-23T19:22:24.821Z,5.49
2018-11-23T19:24:54.216Z,5.49
2018-11-23T19:27:23.777Z,5.47
2018-11-23T19:29:56.596Z,5.49
2018-11-23T19:32:29.435Z,5.52
2018-11-23T19:35:02.113Z,5.53
2018-11-23T19:37:31.653Z,5.47
2018-11-23T19:40:01.669Z,5.48
2018-11-23T19:42:36.877Z,5.44
2018-11-23T19:45:18.533Z,5.35
2018-11-23T19:47:48.059Z,5.31
2018-11-23T19:50:18.614Z,5.33
2018-11-23T19:52:48.509Z,5.62
2018-11-23T19:55:18.648Z,5.41
2018-11-23T19:57:50.208Z,5.32
2018-11-23T20:00:26.224Z,5.27
2018-11-23T20:02:56.233Z,5.31
2018-11-23T20:05:25.791Z,5.28
2018-11-23T20:08:00.361Z,5.29
2018-11-23T20:10:30.025Z,5.29
2018-11-23T20:13:02.030Z,5.20
2018-11-23T20:15:37.240Z,5.54
2018-11-23T20:18:07.567Z,5.35
2018-11-23T20:20:39.960Z,5.65
2018-11-23T20:23:09.558Z,5.39
2018-11-23T20:25:39.315Z,5.37
2018-11-23T20:28:11.612Z,5.35
2018-11-23T20:30:42.547Z,5.30
2018-11-23T20:33:13.331Z,5.28
2018-11-23T20:35:48.150Z,5.28
2018-11-23T20:38:20.653Z,5.24
2018-11-23T20:40:48.336Z,5.19
2018-11-23T20:43:18.637Z,5.17
2018-11-23T20:45:50.351Z,5.14
2018-11-23T20:48:19.827Z,5.15
2018-11-23T20:50:58.792Z,5.11
2018-11-23T20:53:34.291Z,5.13
2018-11-23T20:56:03.866Z,5.05
2018-11-23T20:58:33.439Z,5.12
2018-11-23T21:01:06.098Z,5.12
2018-11-23T21:03:36.101Z,5.08
2018-11-23T21:06:08.845Z,5.06
2018-11-23T21:08:38.446Z,5.04
2018-11-23T21:11:08.223Z,5.05
2018-11-23T21:13:40.220Z,5.10
2018-11-23T21:16:15.640Z,5.10
2018-11-23T21:18:51.123Z,5.11
2018-11-23T21:21:23.038Z,5.14
2018-11-23T21:23:52.633Z,5.12
2018-11-23T21:26:21.988Z,5.11
2018-11-23T21:28:52.128Z,5.12
2018-11-23T21:31:23.329Z,5.12
2018-11-23T21:33:52.897Z,5.11
2018-11-23T21:36:22.700Z,5.08
2018-11-23T21:38:55.339Z,5.06
2018-11-23T21:41:29.670Z,5.00
2018-11-23T21:43:58.089Z,4.97
2018-11-23T21:46:30.595Z,4.93
2018-11-23T21:49:00.183Z,4.81
2018-11-23T21:51:33.369Z,4.78
2018-11-23T21:54:05.984Z,4.75
2018-11-23T21:56:35.810Z,4.80
2018-11-23T21:59:05.728Z,4.82
2018-11-23T22:01:35.408Z,4.79
2018-11-23T22:04:06.506Z,4.80
2018-11-23T22:06:33.343Z,4.84
2018-11-23T22:09:02.329Z,4.89
2018-11-23T22:11:31.277Z,4.85
2018-11-23T22:14:00.229Z,4.88
2018-11-23T22:16:29.212Z,4.86
2018-11-23T22:18:58.142Z,4.83
2018-11-23T22:21:27.048Z,4.78
2018-11-23T22:24:01.375Z,4.72
2018-11-23T22:26:24.887Z,4.67
2018-11-23T22:28:53.815Z,4.67
2018-11-23T22:31:22.767Z,4.63
2018-11-23T22:33:52.539Z,4.62
2018-11-23T22:36:21.534Z,4.77
2018-11-23T22:38:50.400Z,4.62
2018-11-23T22:41:19.388Z,4.56
2018-11-23T22:43:48.310Z,4.54
2018-11-23T22:46:17.262Z,4.54
2018-11-23T22:48:46.167Z,4.50
2018-11-23T22:51:15.040Z,4.47
2018-11-23T22:53:44.172Z,4.45
2018-11-23T22:56:13.078Z,4.40
2018-11-23T22:58:41.992Z,4.33
2018-11-23T23:01:10.952Z,4.34
2018-11-23T23:03:39.868Z,4.61
2018-11-23T23:06:08.823Z,4.36
2018-11-23T23:08:37.835Z,4.31
2018-11-23T23:11:06.826Z,4.31
2018-11-23T23:13:35.770Z,4.28
2018-11-23T23:16:04.890Z,4.25
2018-11-23T23:18:33.872Z,4.21
2018-11-23T23:21:02.833Z,4.17
2018-11-23T23:23:31.728Z,4.15
2018-11-23T23:26:00.654Z,4.10
2018-11-23T23:28:29.542Z,4.05
2018-11-23T23:30:58.520Z,4.02
2018-11-23T23:36:05.358Z,4.00
2018-11-23T23:38:34.254Z,4.01
2018-11-23T23:41:03.168Z,3.99
2018-11-23T23:43:32.088Z,3.91
2018-11-23T23:46:01.016Z,3.90
2018-11-23T23:48:29.922Z,3.90
2018-11-23T23:50:58.874Z,3.89
2018-11-23T23:53:27.803Z,3.86
2018-11-23T23:55:56.764Z,3.78
2018-11-23T23:58:25.745Z,3.71
